Time;durP1;ratioP1;P1;durP2;ratioP2;P2;SDS_P1;SDS_P2;PMS_P1;PMS_P2;Temp;Humidity;BMP_temperature;BMP_pressure;BME280_temperature;BME280_humidity;BME280_pressure;Samples;Min_cycle;Max_cycle;Signal;HPM_P1;HPM_P2
2022/07/19 00:00:23;;;;;;;11.28;6.65;;;;;;;13.98;78.97;99705.68;4011578;88;22038;-82
2022/07/19 00:06:28;;;;;;;14.28;6.78;;;;;;;13.89;79.56;99696.19;4001423;87;21103;-82
2022/07/19 00:12:30;;;;;;;9.70;5.60;;;;;;;13.77;79.98;99690.38;4002625;88;21106;-83
2022/07/19 00:18:31;;;;;;;12.65;5.50;;;;;;;13.78;80.43;99693.31;4001375;88;21080;-83
2022/07/19 00:24:33;;;;;;;10.82;6.60;;;;;;;13.90;80.62;99685.38;4000304;88;21543;-82
2022/07/19 00:30:40;;;;;;;9.75;5.25;;;;;;;13.87;80.42;99668.25;4003379;87;21072;-82
2022/07/19 00:36:43;;;;;;;8.53;5.70;;;;;;;13.77;80.99;99667.56;4002924;87;21556;-82
2022/07/19 00:42:49;;;;;;;10.60;5.12;;;;;;;13.64;81.39;99682.17;4012402;87;21019;-82
2022/07/19 00:48:56;;;;;;;13.78;5.28;;;;;;;13.77;81.78;99682.11;3986951;88;21123;-82
2022/07/19 00:55:00;;;;;;;10.30;5.45;;;;;;;13.75;81.77;99684.45;4015006;88;21456;-84
2022/07/19 01:01:06;;;;;;;8.30;5.47;;;;;;;13.73;81.86;99688.76;3979682;88;21111;-82
2022/07/19 01:07:09;;;;;;;11.48;4.97;;;;;;;13.73;82.23;99681.88;3999046;88;21685;-82
2022/07/19 01:13:14;;;;;;;6.90;4.95;;;;;;;13.66;81.97;99682.59;4001446;87;21003;-82
2022/07/19 01:19:17;;;;;;;9.15;4.87;;;;;;;13.49;82.54;99681.05;4003485;88;21138;-82
2022/07/19 01:25:23;;;;;;;8.40;4.95;;;;;;;13.44;82.61;99687.68;4008783;88;21844;-82
2022/07/19 01:31:26;;;;;;;11.28;5.53;;;;;;;13.29;82.84;99687.91;4001472;88;21168;-83
2022/07/19 01:37:32;;;;;;;12.37;5.87;;;;;;;13.36;83.30;99678.38;4000439;87;21154;-82
2022/07/19 01:43:35;;;;;;;9.17;4.90;;;;;;;13.27;82.88;99683.35;4009715;88;21051;-82
2022/07/19 01:49:38;;;;;;;7.83;4.95;;;;;;;13.11;83.52;99679.45;3994218;88;21070;-82
2022/07/19 01:55:39;;;;;;;8.35;4.65;;;;;;;13.11;83.88;99684.17;3986319;88;21970;-82
2022/07/19 02:01:41;;;;;;;7.97;5.12;;;;;;;13.14;84.23;99683.42;3977378;88;21069;-82
2022/07/19 02:07:43;;;;;;;8.85;5.08;;;;;;;13.15;84.34;99679.50;3968976;88;21614;-84
2022/07/19 02:13:49;;;;;;;8.88;5.55;;;;;;;13.19;84.55;99681.69;3961696;88;21161;-84
2022/07/19 02:19:52;;;;;;;7.78;5.50;;;;;;;13.07;84.89;99680.00;3981631;86;21072;-82
2022/07/19 02:25:55;;;;;;;12.85;5.78;;;;;;;13.16;85.45;99675.00;3976272;88;22400;-82
2022/07/19 02:31:57;;;;;;;8.53;4.75;;;;;;;13.27;85.27;99673.16;3977621;88;21037;-82
2022/07/19 02:37:58;;;;;;;9.30;5.67;;;;;;;13.18;85.68;99681.48;3968189;88;21511;-83
2022/07/19 02:43:59;;;;;;;6.55;4.90;;;;;;;13.26;86.18;99682.58;3942272;87;47246;-83
2022/07/19 02:50:02;;;;;;;8.35;5.30;;;;;;;13.33;86.31;99690.09;3858252;90;21168;-84
2022/07/19 02:56:06;;;;;;;10.32;4.83;;;;;;;13.48;86.28;99684.40;3858750;90;21668;-83
2022/07/19 03:02:09;;;;;;;9.08;4.92;;;;;;;13.53;86.41;99692.28;3859360;90;21067;-84
2022/07/19 03:08:14;;;;;;;9.13;5.50;;;;;;;13.56;86.55;99689.37;3858445;90;21179;-86
2022/07/19 03:14:20;;;;;;;7.20;4.50;;;;;;;13.54;86.63;99692.51;3859381;90;21012;-83
2022/07/19 03:20:23;;;;;;;9.68;4.87;;;;;;;13.52;86.80;99693.47;3857953;90;21064;-83
2022/07/19 03:26:29;;;;;;;8.53;4.72;;;;;;;13.59;86.91;99692.75;3859192;90;21609;-83
2022/07/19 03:32:31;;;;;;;7.95;4.30;;;;;;;13.61;86.83;99693.94;3861666;90;21095;-83
2022/07/19 03:38:33;;;;;;;5.80;4.55;;;;;;;13.65;87.06;99689.86;3857294;90;21508;-83
2022/07/19 03:44:37;;;;;;;11.48;4.83;;;;;;;13.72;87.24;99689.91;3858606;90;21549;-83
2022/07/19 03:50:44;;;;;;;9.08;4.45;;;;;;;13.82;87.21;99700.23;3838212;90;21067;-82
2022/07/19 03:56:46;;;;;;;8.00;4.33;;;;;;;13.89;87.10;99705.21;3875505;90;21673;-83
2022/07/19 04:02:49;;;;;;;7.62;4.50;;;;;;;14.03;87.07;99699.83;3877542;90;21099;-84
2022/07/19 04:08:52;;;;;;;11.03;4.20;;;;;;;14.10;86.93;99701.86;3877187;90;21118;-83
2022/07/19 04:15:04;;;;;;;11.75;4.37;;;;;;;14.15;86.82;99703.69;3878824;90;20981;-84
2022/07/19 04:21:08;;;;;;;9.23;3.70;;;;;;;14.17;86.82;99715.09;3880083;90;21100;-84
2022/07/19 04:27:10;;;;;;;7.90;4.30;;;;;;;14.31;86.76;99720.55;3881049;90;21063;-84
2022/07/19 04:33:15;;;;;;;6.47;3.70;;;;;;;14.45;86.72;99717.31;3877812;90;21115;-83
2022/07/19 04:39:18;;;;;;;12.23;3.98;;;;;;;14.50;86.63;99728.56;3877080;90;21070;-84
2022/07/19 04:45:20;;;;;;;6.70;3.52;;;;;;;14.58;86.51;99725.45;3877930;90;21051;-84
2022/07/19 04:51:24;;;;;;;7.50;4.10;;;;;;;14.69;86.53;99728.30;3877108;90;21143;-82
2022/07/19 04:57:29;;;;;;;8.20;4.55;;;;;;;14.78;86.58;99732.88;3879879;90;21147;-83
2022/07/19 05:03:34;;;;;;;8.50;4.35;;;;;;;14.92;86.51;99733.75;3861871;90;21041;-84
2022/07/19 05:09:35;;;;;;;9.00;3.98;;;;;;;15.10;86.17;99725.55;3879418;90;22220;-84
2022/07/19 05:15:38;;;;;;;10.40;4.45;;;;;;;15.21;85.94;99738.21;3877629;90;21535;-84
2022/07/19 05:21:43;;;;;;;11.53;6.15;;;;;;;15.36;86.04;99726.05;3861280;90;21032;-84
2022/07/19 05:27:47;;;;;;;11.68;5.47;;;;;;;15.50;85.99;99728.88;3879413;90;21047;-83
2022/07/19 05:33:56;;;;;;;10.95;5.42;;;;;;;15.68;85.72;99724.79;3871873;90;21057;-83
2022/07/19 05:39:58;;;;;;;13.53;7.25;;;;;;;15.92;86.01;99720.49;3860707;90;22026;-83
2022/07/19 05:46:03;;;;;;;16.10;6.50;;;;;;;16.27;86.01;99713.61;3878491;90;21140;-84
2022/07/19 05:52:08;;;;;;;12.35;6.50;;;;;;;16.54;85.74;99716.96;3877436;90;21083;-83
2022/07/19 05:58:17;;;;;;;14.38;6.90;;;;;;;16.77;85.32;99711.77;3878194;90;21078;-83
2022/07/19 06:04:18;;;;;;;16.95;6.10;;;;;;;16.96;84.59;99715.48;3878611;90;21126;-83
2022/07/19 06:10:20;;;;;;;12.78;5.78;;;;;;;17.21;84.55;99712.64;3877405;90;21033;-85
2022/07/19 06:16:23;;;;;;;15.43;6.65;;;;;;;17.45;84.08;99713.72;3855882;91;21091;-84
2022/07/19 06:22:24;;;;;;;9.95;5.65;;;;;;;17.67;83.46;99704.11;3843349;91;21092;-84
2022/07/19 06:28:26;;;;;;;10.85;5.50;;;;;;;17.89;82.65;99702.19;3879460;90;21081;-83
2022/07/19 06:34:29;;;;;;;13.93;5.87;;;;;;;18.08;82.27;99703.04;3854047;90;22024;-85
2022/07/19 06:40:37;;;;;;;9.35;4.72;;;;;;;18.33;81.94;99699.45;3878078;90;21591;-83
2022/07/19 06:46:42;;;;;;;9.25;4.22;;;;;;;18.62;81.87;99700.78;3878039;90;21190;-83
2022/07/19 06:52:50;;;;;;;9.50;3.75;;;;;;;18.93;81.00;99705.02;3880948;90;21120;-84
2022/07/19 06:58:59;;;;;;;10.20;4.60;;;;;;;19.29;81.12;99700.66;3865573;90;21106;-83
2022/07/19 07:05:11;;;;;;;9.60;4.67;;;;;;;19.96;80.44;99705.45;3847433;90;21167;-83
2022/07/19 07:11:16;;;;;;;10.58;5.30;;;;;;;20.66;79.57;99703.48;3868566;90;21553;-85
2022/07/19 07:17:21;;;;;;;13.25;5.80;;;;;;;21.35;79.02;99706.11;3871967;92;21556;-85
2022/07/19 07:23:27;;;;;;;12.78;4.67;;;;;;;21.92;78.14;99689.55;3865751;90;22251;-84
2022/07/19 07:29:33;;;;;;;7.70;4.42;;;;;;;22.63;76.92;99689.37;3868544;90;21096;-85
2022/07/19 07:35:41;;;;;;;8.93;4.60;;;;;;;23.34;75.63;99681.98;3868493;90;21105;-85
2022/07/19 07:41:48;;;;;;;7.72;3.62;;;;;;;23.88;73.63;99695.27;3866493;92;21051;-85
2022/07/19 07:47:53;;;;;;;11.68;3.58;;;;;;;24.14;72.22;99696.87;3840851;90;21143;-84
2022/07/19 07:54:06;;;;;;;8.40;3.35;;;;;;;23.84;70.85;99665.86;3868706;90;21072;-84
2022/07/19 08:00:21;;;;;;;6.92;3.00;;;;;;;24.07;69.48;99697.09;3875390;90;21074;-85
2022/07/19 08:06:36;;;;;;;3.83;2.60;;;;;;;24.49;67.98;99699.11;3861302;90;21105;-84
2022/07/19 08:12:47;;;;;;;6.00;2.70;;;;;;;24.82;66.35;99696.78;3876644;90;21102;-85
2022/07/19 08:18:53;;;;;;;6.40;2.30;;;;;;;24.90;64.94;99693.26;3881601;90;21117;-84
2022/07/19 08:24:55;;;;;;;4.47;2.22;;;;;;;25.23;63.81;99693.68;3880087;90;21599;-85
2022/07/19 08:30:58;;;;;;;6.72;2.87;;;;;;;25.37;62.60;99679.92;3877552;90;21070;-85
2022/07/19 08:37:03;;;;;;;7.03;2.30;;;;;;;25.66;62.11;99681.81;3875836;90;21065;-85
2022/07/19 08:43:10;;;;;;;5.92;1.98;;;;;;;25.81;60.40;99675.00;3878602;90;21944;-85
2022/07/19 08:49:13;;;;;;;4.67;1.63;;;;;;;25.96;58.88;99674.00;3876172;90;21161;-86
2022/07/19 08:55:15;;;;;;;6.87;1.92;;;;;;;25.97;57.60;99680.36;3875036;90;21741;-86
2022/07/19 09:01:27;;;;;;;3.10;1.72;;;;;;;26.02;56.96;99675.59;3812237;92;21059;-85
2022/07/19 09:07:29;;;;;;;3.80;1.80;;;;;;;26.18;56.47;99680.94;3813342;92;21544;-84
2022/07/19 09:13:33;;;;;;;3.52;1.77;;;;;;;26.33;55.58;99672.08;3812835;92;21123;-85
2022/07/19 09:19:43;;;;;;;3.08;1.75;;;;;;;26.44;54.97;99664.60;3809358;92;21124;-85
2022/07/19 09:26:05;;;;;;;4.72;1.80;;;;;;;26.51;53.45;99660.89;3789255;93;22067;-85
2022/07/19 09:32:14;;;;;;;5.80;1.82;;;;;;;26.78;52.05;99660.16;3809089;92;21350;-85
2022/07/19 09:38:33;;;;;;;3.90;1.50;;;;;;;26.93;51.79;99656.23;3789896;92;21180;-83
2022/07/19 09:44:36;;;;;;;5.65;1.67;;;;;;;26.90;51.05;99651.56;3812361;92;21032;-84
2022/07/19 09:50:41;;;;;;;2.67;1.25;;;;;;;27.57;50.75;99647.84;3814892;92;21087;-85
2022/07/19 09:56:48;;;;;;;2.25;1.37;;;;;;;28.33;49.89;99648.72;3809153;92;21075;-84
2022/07/19 10:02:59;;;;;;;5.67;1.20;;;;;;;28.97;49.05;99650.44;3853092;90;21099;-87
2022/07/19 10:09:11;;;;;;;5.35;1.70;;;;;;;29.17;47.07;99639.93;3877017;90;21058;-84
2022/07/19 10:15:20;;;;;;;2.72;1.37;;;;;;;29.03;46.48;99638.02;3929561;90;21059;-84
2022/07/19 10:21:23;;;;;;;4.55;1.87;;;;;;;28.91;45.55;99641.11;3879976;90;21009;-83
2022/07/19 10:27:30;;;;;;;3.35;1.75;;;;;;;29.22;45.83;99640.05;3881356;92;21020;-83
2022/07/19 10:33:37;;;;;;;5.67;1.67;;;;;;;29.30;44.86;99631.34;3878075;90;21166;-83
2022/07/19 10:39:41;;;;;;;2.72;1.40;;;;;;;29.70;42.57;99634.34;3878127;90;21017;-84
2022/07/19 10:46:05;;;;;;;3.25;1.52;;;;;;;29.97;42.91;99625.52;3881597;90;21045;-84
2022/07/19 10:52:34;;;;;;;4.28;1.40;;;;;;;30.23;42.86;99615.74;3879064;90;21086;-84
2022/07/19 10:58:54;;;;;;;3.15;1.65;;;;;;;30.06;42.09;99614.09;3832143;90;21595;-84
2022/07/19 11:04:58;;;;;;;2.83;1.77;;;;;;;30.58;41.31;99615.05;3876946;90;21920;-83
2022/07/19 11:11:11;;;;;;;3.58;1.92;;;;;;;31.00;38.06;99603.97;3851796;90;21238;-85
2022/07/19 11:17:19;;;;;;;6.90;1.63;;;;;;;31.56;39.93;99598.95;3872362;90;21151;-85
2022/07/19 11:23:20;;;;;;;3.10;1.70;;;;;;;32.14;38.61;99593.95;3876832;90;21097;-84
2022/07/19 11:29:24;;;;;;;2.95;1.80;;;;;;;32.53;38.25;99585.00;3880193;90;21111;-85
2022/07/19 11:35:31;;;;;;;4.57;1.50;;;;;;;32.64;37.69;99585.03;3878169;90;21062;-85
2022/07/19 11:41:38;;;;;;;2.12;1.60;;;;;;;32.76;37.07;99588.02;3876454;90;21072;-85
2022/07/19 11:47:50;;;;;;;3.60;1.85;;;;;;;32.87;36.85;99582.37;3877815;90;21028;-84
2022/07/19 11:53:56;;;;;;;7.30;1.95;;;;;;;33.03;36.48;99576.74;3879538;90;21777;-85
2022/07/19 11:59:57;;;;;;;2.05;1.70;;;;;;;33.16;36.42;99578.44;3878956;90;21060;-86
2022/07/19 12:06:08;;;;;;;6.28;1.50;;;;;;;32.83;35.87;99571.27;3869195;90;21067;-87
2022/07/19 12:12:16;;;;;;;2.50;1.57;;;;;;;32.68;35.47;99567.91;3869682;90;21589;-85
2022/07/19 12:18:24;;;;;;;2.25;1.50;;;;;;;32.43;35.69;99558.95;3868820;90;21895;-85
2022/07/19 12:24:34;;;;;;;2.75;1.52;;;;;;;31.85;35.43;99555.44;3871468;90;21672;-85
2022/07/19 12:30:38;;;;;;;3.42;1.70;;;;;;;31.55;35.73;99554.97;3875361;90;21599;-85
2022/07/19 12:36:41;;;;;;;4.70;1.92;;;;;;;31.02;35.51;99558.23;3868126;90;21067;-85
2022/07/19 12:43:05;;;;;;;3.85;1.95;;;;;;;30.59;36.07;99558.66;3868659;90;21075;-85
2022/07/19 12:49:12;;;;;;;4.40;1.50;;;;;;;30.22;35.08;99545.02;3867438;90;21254;-85
2022/07/19 12:55:18;;;;;;;2.77;1.60;;;;;;;29.89;35.11;99550.20;3869999;90;21033;-85
2022/07/19 13:01:20;;;;;;;2.30;1.70;;;;;;;29.64;35.24;99540.38;3815782;90;21195;-85
2022/07/19 13:07:27;;;;;;;3.08;1.45;;;;;;;29.34;34.89;99535.25;3804874;92;21512;-85
2022/07/19 13:13:36;;;;;;;4.05;1.72;;;;;;;29.27;35.45;99520.92;3747547;92;21122;-85
2022/07/19 13:19:45;;;;;;;2.42;1.60;;;;;;;29.12;35.31;99515.95;3806104;92;21031;-84
2022/07/19 13:25:58;;;;;;;4.08;1.40;;;;;;;29.02;35.46;99520.09;3803293;92;21051;-86
2022/07/19 13:32:07;;;;;;;4.25;1.42;;;;;;;28.86;35.57;99517.80;3806826;92;21071;-86
2022/07/19 13:38:23;;;;;;;2.80;1.50;;;;;;;28.77;36.37;99510.20;3790698;92;21566;-86
2022/07/19 13:44:36;;;;;;;4.25;1.98;;;;;;;28.64;36.93;99513.96;3828767;90;21541;-85
2022/07/19 13:50:48;;;;;;;2.95;1.50;;;;;;;28.63;36.99;99505.97;3807418;92;21882;-84
2022/07/19 13:57:02;;;;;;;5.05;1.80;;;;;;;28.63;36.81;99505.34;3810208;92;21053;-84
2022/07/19 14:03:08;;;;;;;3.65;1.82;;;;;;;28.49;36.55;99500.48;3805126;92;21080;-85
2022/07/19 14:09:15;;;;;;;4.77;2.30;;;;;;;28.46;37.19;99497.81;3829066;92;21086;-85
2022/07/19 14:15:20;;;;;;;4.42;1.75;;;;;;;28.44;37.00;99487.69;3820321;90;21063;-85
2022/07/19 14:21:26;;;;;;;4.87;2.12;;;;;;;28.38;36.85;99479.12;3814547;92;21095;-86
2022/07/19 14:27:27;;;;;;;4.35;1.62;;;;;;;28.41;36.78;99480.21;3807872;92;21514;-85
2022/07/19 14:33:29;;;;;;;4.78;1.70;;;;;;;28.37;36.70;99466.94;3821403;92;21156;-85
2022/07/19 14:39:38;;;;;;;2.25;1.55;;;;;;;28.26;36.50;99469.55;3804773;92;21075;-85
2022/07/19 14:45:48;;;;;;;5.53;2.27;;;;;;;28.10;37.26;99461.55;3820410;92;21104;-84
2022/07/19 14:51:52;;;;;;;3.75;2.02;;;;;;;28.01;37.71;99456.00;3818422;92;21029;-85
2022/07/19 14:57:54;;;;;;;4.28;2.22;;;;;;;27.85;37.94;99455.00;3815350;90;21946;-85
2022/07/19 15:03:56;;;;;;;4.62;1.90;;;;;;;27.88;37.91;99454.10;3873275;92;21092;-84
2022/07/19 15:10:02;;;;;;;5.92;2.10;;;;;;;27.91;38.23;99454.55;3871748;90;21032;-86
2022/07/19 15:16:06;;;;;;;2.12;1.82;;;;;;;27.99;37.57;99450.08;3873007;90;21047;-85
2022/07/19 15:22:09;;;;;;;3.02;1.90;;;;;;;28.04;37.30;99445.19;3864091;90;21110;-85
2022/07/19 15:28:12;;;;;;;5.30;2.05;;;;;;;27.92;38.65;99453.27;3871554;90;21025;-85
2022/07/19 15:34:19;;;;;;;2.65;1.70;;;;;;;27.78;38.53;99437.89;3870822;90;21075;-86
2022/07/19 15:40:31;;;;;;;3.72;1.70;;;;;;;27.70;38.82;99447.16;3871854;90;21119;-85
2022/07/19 15:46:38;;;;;;;4.03;2.00;;;;;;;27.64;38.54;99440.03;3868765;90;21119;-85
2022/07/19 15:52:54;;;;;;;6.97;1.80;;;;;;;27.62;38.72;99435.50;3868345;90;21051;-84
2022/07/19 15:58:58;;;;;;;5.90;1.90;;;;;;;27.56;38.50;99428.34;3862334;90;21181;-84
2022/07/19 16:05:23;;;;;;;5.92;2.00;;;;;;;27.45;38.48;99431.56;3808314;92;21079;-85
2022/07/19 16:11:35;;;;;;;3.67;1.98;;;;;;;27.56;38.24;99428.98;3842929;91;21114;-85
2022/07/19 16:17:54;;;;;;;4.72;2.27;;;;;;;27.36;38.34;99423.19;3790121;92;21123;-87
2022/07/19 16:24:08;;;;;;;3.60;1.80;;;;;;;27.30;38.72;99427.89;3793749;92;22295;-85
2022/07/19 16:30:11;;;;;;;3.77;1.57;;;;;;;27.22;39.04;99423.84;3819018;91;21115;-85
2022/07/19 16:36:17;;;;;;;5.78;2.50;;;;;;;27.15;39.15;99415.77;3748926;93;21219;-84
2022/07/19 16:42:37;;;;;;;7.60;1.90;;;;;;;27.06;39.50;99406.75;3818560;91;21600;-84
2022/07/19 16:48:40;;;;;;;4.78;1.92;;;;;;;27.14;39.03;99407.97;3815941;92;21139;-85
2022/07/19 16:54:41;;;;;;;4.78;1.85;;;;;;;27.02;39.05;99408.19;3873270;90;21220;-86
2022/07/19 17:00:43;;;;;;;3.65;2.02;;;;;;;26.92;39.44;99412.31;3873114;90;21156;-85
2022/07/19 17:06:51;;;;;;;5.80;2.00;;;;;;;26.79;39.66;99406.91;3871757;90;21056;-85
2022/07/19 17:12:57;;;;;;;4.22;1.80;;;;;;;26.83;39.70;99404.69;3874512;90;21152;-85
2022/07/19 17:19:02;;;;;;;4.33;2.08;;;;;;;26.72;39.77;99402.26;3872522;90;21610;-85
2022/07/19 17:25:10;;;;;;;3.08;1.52;;;;;;;26.72;39.53;99394.59;3876304;90;21138;-85
2022/07/19 17:31:15;;;;;;;4.03;1.98;;;;;;;26.73;39.62;99401.78;3875195;90;21141;-85
2022/07/19 17:37:30;;;;;;;4.03;1.77;;;;;;;26.68;39.88;99396.02;3870695;90;21161;-85
2022/07/19 17:49:54;;;;;;;3.42;1.90;;;;;;;26.39;40.42;99406.36;3871401;90;21678;-85
2022/07/19 17:55:58;;;;;;;3.55;2.22;;;;;;;26.23;40.80;99400.34;3870476;90;21098;-85
2022/07/19 18:02:05;;;;;;;4.42;2.45;;;;;;;26.06;41.30;99399.87;3873545;90;21055;-85
2022/07/19 18:08:14;;;;;;;3.60;2.20;;;;;;;25.89;42.00;99395.81;3765066;90;9999897;-85
2022/07/19 18:14:23;;;;;;;5.12;2.72;;;;;;;25.69;42.81;99403.92;3874487;90;21023;-85
2022/07/19 18:20:35;;;;;;;4.47;2.42;;;;;;;25.45;43.46;99407.95;3870771;90;21057;-85
2022/07/19 18:26:52;;;;;;;8.18;3.17;;;;;;;25.20;44.27;99408.19;3854086;92;21633;-86
2022/07/19 18:33:04;;;;;;;9.95;3.77;;;;;;;24.92;45.06;99406.55;3872624;90;21153;-84
2022/07/19 18:39:14;;;;;;;7.50;4.60;;;;;;;24.60;46.12;99407.78;3894468;90;21077;-85
2022/07/19 18:45:16;;;;;;;6.12;3.83;;;;;;;24.31;47.05;99413.53;3874581;90;21470;-85
2022/07/19 18:51:17;;;;;;;6.20;3.50;;;;;;;24.04;47.79;99418.33;3874432;90;21013;-85
2022/07/19 18:57:18;;;;;;;11.18;5.12;;;;;;;23.78;48.75;99428.65;3874621;90;21508;-85
2022/07/19 19:03:22;;;;;;;10.50;6.75;;;;;;;23.56;49.30;99432.02;3844465;92;21905;-85
2022/07/19 19:09:38;;;;;;;13.93;6.62;;;;;;;23.23;50.14;99439.28;3828220;92;21090;-84
2022/07/19 19:15:45;;;;;;;18.37;9.03;;;;;;;22.96;50.72;99438.97;3807793;92;21571;-84
2022/07/19 19:21:54;;;;;;;10.08;7.00;;;;;;;22.70;51.62;99443.59;3716440;95;21331;-84
2022/07/19 19:27:59;;;;;;;10.80;6.85;;;;;;;22.47;52.43;99438.30;3788985;92;21099;-84
2022/07/19 19:34:01;;;;;;;13.30;6.83;;;;;;;22.25;53.27;99449.30;3830849;92;21126;-84
2022/07/19 19:40:12;;;;;;;16.45;7.00;;;;;;;21.96;53.75;99446.33;3822564;92;21087;-85
2022/07/19 19:46:19;;;;;;;14.73;7.03;;;;;;;21.68;54.34;99446.47;3817665;92;21099;-84
2022/07/19 19:52:29;;;;;;;13.03;6.95;;;;;;;21.44;55.11;99445.89;3809788;92;21051;-85
2022/07/19 19:58:32;;;;;;;20.12;8.30;;;;;;;21.27;55.80;99447.73;3817230;92;21127;-84
2022/07/19 20:04:39;;;;;;;36.50;13.63;;;;;;;21.06;57.01;99456.02;3702334;92;10000255;-84
2022/07/19 20:10:52;;;;;;;33.05;11.80;;;;;;;20.89;57.41;99456.39;3778584;92;21127;-85
2022/07/19 20:16:55;;;;;;;;;;;;;;;20.71;58.04;99451.83;3812926;92;21540;-84
2022/07/19 20:23:07;;;;;;;35.23;13.22;;;;;;;20.54;60.48;99463.53;3863586;92;20131;-84
2022/07/19 20:29:13;;;;;;;20.40;9.83;;;;;;;20.41;59.84;99458.44;3781434;93;21608;-85
2022/07/19 20:35:16;;;;;;;16.20;9.65;;;;;;;20.29;59.97;99455.52;3810599;91;21083;-84
2022/07/19 20:41:25;;;;;;;16.42;8.78;;;;;;;20.12;60.91;99458.20;3807503;92;21094;-84
2022/07/19 20:47:28;;;;;;;17.70;9.45;;;;;;;19.90;61.69;99468.78;3808268;92;21043;-85
2022/07/19 20:53:30;;;;;;;17.95;8.55;;;;;;;19.70;62.32;99468.73;3797328;92;21100;-84
2022/07/19 20:59:37;;;;;;;16.50;9.25;;;;;;;19.56;63.40;99471.00;3800637;92;22144;-84
2022/07/19 21:05:49;;;;;;;17.23;9.30;;;;;;;19.41;64.07;99475.20;3882904;90;21029;-84
2022/07/19 21:12:01;;;;;;;19.85;10.45;;;;;;;19.24;64.68;99478.44;3878123;90;21066;-84
2022/07/19 21:18:05;;;;;;;17.80;10.45;;;;;;;19.05;65.29;99475.56;3858058;90;21116;-85
2022/07/19 21:24:10;;;;;;;14.75;7.58;;;;;;;18.94;65.70;99478.50;3878024;90;21037;-85
2022/07/19 21:30:15;;;;;;;18.48;8.95;;;;;;;18.83;66.71;99489.56;3880395;90;21055;-84
2022/07/19 21:36:17;;;;;;;21.80;9.70;;;;;;;18.76;67.28;99489.09;3874970;90;21082;-84
2022/07/19 21:42:22;;;;;;;19.77;8.23;;;;;;;18.70;67.60;99485.98;3877792;90;21087;-84
2022/07/19 21:48:23;;;;;;;15.53;7.20;;;;;;;18.53;68.46;99488.39;3876581;90;21118;-84
2022/07/19 21:54:25;;;;;;;14.73;7.30;;;;;;;18.42;69.04;99489.13;3875853;90;21134;-84
2022/07/19 22:00:28;;;;;;;15.95;7.83;;;;;;;18.36;69.54;99496.30;3871485;90;21153;-84
2022/07/19 22:06:33;;;;;;;12.13;6.07;;;;;;;18.33;69.78;99498.52;3844293;91;21186;-84
2022/07/19 22:12:40;;;;;;;15.50;5.72;;;;;;;18.17;70.54;99496.92;3825900;91;21069;-84
2022/07/19 22:18:42;;;;;;;12.63;6.90;;;;;;;18.06;71.37;99505.16;3847976;91;21069;-84
2022/07/19 22:24:52;;;;;;;8.18;5.50;;;;;;;17.98;71.61;99496.76;3845518;91;21116;-84
2022/07/19 22:30:57;;;;;;;11.78;6.30;;;;;;;17.91;72.30;99498.20;3847283;91;21618;-84
2022/07/19 22:37:08;;;;;;;19.05;6.22;;;;;;;17.90;72.45;99507.10;3848293;90;21114;-84
2022/07/19 22:43:11;;;;;;;9.75;5.67;;;;;;;17.85;72.59;99502.62;3849802;90;21548;-84
2022/07/19 22:49:22;;;;;;;11.90;5.45;;;;;;;17.69;73.13;99498.23;3847593;91;21013;-84
2022/07/19 22:55:26;;;;;;;8.75;5.35;;;;;;;17.52;73.69;99497.20;3847964;91;21809;-84
2022/07/19 23:01:28;;;;;;;9.43;5.47;;;;;;;17.43;74.26;99510.67;3851491;90;21189;-83
2022/07/19 23:07:33;;;;;;;9.38;5.28;;;;;;;17.38;74.83;99513.10;3858445;90;21431;-83
2022/07/19 23:13:47;;;;;;;9.05;5.28;;;;;;;17.37;75.60;99511.55;3858095;90;21086;-83
2022/07/19 23:19:50;;;;;;;10.70;5.70;;;;;;;17.31;75.73;99518.09;3851101;91;21033;-84
2022/07/19 23:25:58;;;;;;;9.25;5.70;;;;;;;17.20;76.32;99519.56;3858630;90;21506;-84
2022/07/19 23:31:59;;;;;;;9.50;5.28;;;;;;;17.10;76.71;99526.56;3857374;90;21142;-84
2022/07/19 23:38:05;;;;;;;10.03;5.85;;;;;;;16.99;77.18;99518.92;3841093;90;21057;-83
2022/07/19 23:44:12;;;;;;;15.53;5.53;;;;;;;16.97;77.40;99510.23;3842024;90;21662;-83
2022/07/19 23:50:14;;;;;;;7.33;4.70;;;;;;;16.91;77.83;99516.02;3855969;90;21087;-83
2022/07/19 23:56:24;;;;;;;10.25;5.30;;;;;;;16.83;78.16;99511.70;3863284;90;21102;-83
